Messwerte Kasane

Temperatur

Temperatur
°C
1590750000 13.00 13.00 28
1590753600 14.00 14.00 28
1590757200 15.00 15.00 20
1590760800 16.00 16.00 27
1590764400 17.00 17.00 26
1590768000 18.00 18.00 21
1590771600 19.00 19.00 16
1590775200 20.00 20.00 15
1590778800 21.00 21.00
1590782400 22.00 22.00
1590786000 23.00 23.00
1590789600 0.00 0.00
1590793200 1.00 1.00
1590796800 2.00 2.00
1590800400 3.00 3.00
1590804000 4.00 4.00
1590807600 5.00 5.00 13
1590811200 6.00 6.00 13
1590814800 7.00 7.00
1590818400 8.00 8.00 16
1590822000 9.00 9.00 22
1590825600 10.00 10.00 26
1590829200 11.00 11.00 27
1590832800 12.00 12.00 28

Aktuellste Messwerte

Wettercharakter
Wetter: recht sonnig
Temperatur
29 °C
Feuchtigkeit
20 %
Wind
15 km/hWindrichtung: Ost
Luftdruck
1022 hPa
Messzeit: 30. Mai 2020, 13.00Datenquelle: METAR

Weitere Messstationen in der Nähe

Messstation Temperatur Entfernung
Maun 28 °C 301 km
Francistown 27 °C 451 km

Wind

Windrichtung Böen Mittelwind
° km/h km/h
1590750000 13.00 12.00 - 13.00 10
1590753600 14.00 13.00 - 14.00 330° 15
1590757200 15.00 14.00 - 15.00 350° 15
1590760800 16.00 15.00 - 16.00 320° 10
1590764400 17.00 16.00 - 17.00 310° 10
1590768000 18.00 17.00 - 18.00 280° 5
1590771600 19.00 18.00 - 19.00 5
1590775200 20.00 19.00 - 20.00 190° 5
1590778800 21.00 20.00 - 21.00
1590782400 22.00 21.00 - 22.00
1590786000 23.00 22.00 - 23.00
1590789600 0.00 23.00 - 0.00
1590793200 1.00 0.00 - 1.00
1590796800 2.00 1.00 - 2.00
1590800400 3.00 2.00 - 3.00
1590804000 4.00 3.00 - 4.00
1590807600 5.00 4.00 - 5.00 140° 15
1590811200 6.00 5.00 - 6.00 150° 15
1590814800 7.00 6.00 - 7.00
1590818400 8.00 7.00 - 8.00 110° 10
1590822000 9.00 8.00 - 9.00 110° 15
1590825600 10.00 9.00 - 10.00 120° 20
1590829200 11.00 10.00 - 11.00 100° 20
1590832800 12.00 11.00 - 12.00 90° 20

Ihre Wetterstation

Fehlt Ihre Wetterstation auf unserem Portal?

Schreiben Sie an network@meteonews.ch